Vinita Park, Missouri
Current Conditions -  °F | °C
As of 5:51 PM on Monday 20 Oct 2014 (Local Time) from KSTL Reporting Station
Clear Clear  
Wind Chill: 68°   Ceiling: Unl
Heat Index: 68°   Visibility: 10mi
Dew Point: 44°   Wind: 7mph
Humidity: 42%   Direction: 340°NNW
Pressure: 29.97"   Gusts: NA
Location:  38.702°N, 90.3628°W
Report Text: KSTL 202251Z 34006KT 10SM CLR 20/07 A2997 RMK AO2 SLP144 T02000067
Loading
Personal Weather Stations






























Interactive Weather Map
Tropical Storm Tracking
New forecast layout! Learn more

10-Day Weather Forecast

Advertisements
Track Severe Weather on mobile